Terminal Aerodrome Forecast
Issued by NWS

Home | Current Version | Previous Version | Text Only | Print | Product List | Glossary On
Versions: 1 2 3 4 5 6 7 8 9 10 11 12 13 14 15 16 17
641
FTUS43 KGRR 281140
TAFMKG
TAF
KMKG 281140Z 2812/2912 18012G21KT P6SM OVC250
     FM281500 18017G26KT P6SM SCT050 BKN120
     FM281800 16020G30KT 6SM -SHRA OVC050
     FM290400 21022G32KT P6SM VCTS BKN050CB=

USA.gov is the U.S. government's official web portal to all federal, state and local government web resources and services.